DLH14T LTFM-EDDF
Flight info
| Callsign | DLH14T |
|---|---|
| Flight time | 2h 36m |
| Altitude | 40000 |
| Route | TUDBU1D/35L TUDBU DCT ETUBA DCT NAVOD DCT INVED DCT BEGLA DCT DITIS DCT RAPET T170 VAGAB/N0370F240 T170 GAPLA T178 KERAX KERAX5D |
| Aircraft | A339/H-SADE1E2E3GHIJ3J5M1P2RWXY/LB2D1 |
Departure
| Time | 2026-04-14 12:42 |
|---|---|
| Airport | İstanbul Airport (LTFM) |
Arrival
| Time | 2026-04-14 15:19 |
|---|---|
| Airport | Frankfurt Main Airport (EDDF) |
| Time | Latitude | Longitude | Altitude | Speed | Heading |
|---|---|---|---|---|---|
| 2026-04-14 12:06 | 41.26406 | 28.73573 | 336 ft | 0 kts | 71° |
| 2026-04-14 12:34 | 41.26406 | 28.73572 | 340 ft | 2 kts | 71° |
| 2026-04-14 12:34 | 41.26401 | 28.73552 | 334 ft | 4 kts | 71° |
| 2026-04-14 12:35 | 41.26392 | 28.73518 | 334 ft | 4 kts | 71° |
| 2026-04-14 12:35 | 41.26383 | 28.73487 | 334 ft | 4 kts | 92° |
| 2026-04-14 12:35 | 41.26385 | 28.73460 | 334 ft | 4 kts | 138° |
| 2026-04-14 12:35 | 41.26405 | 28.73441 | 334 ft | 3 kts | 160° |
| 2026-04-14 12:36 | 41.26425 | 28.73432 | 334 ft | 4 kts | 161° |
| 2026-04-14 12:36 | 41.26434 | 28.73428 | 334 ft | 0 kts | 161° |
| 2026-04-14 12:38 | 41.26410 | 28.73439 | 334 ft | 4 kts | 161° |
| 2026-04-14 12:38 | 41.26375 | 28.73455 | 336 ft | 7 kts | 161° |
| 2026-04-14 12:38 | 41.26325 | 28.73478 | 335 ft | 9 kts | 161° |
| 2026-04-14 12:39 | 41.26262 | 28.73489 | 340 ft | 10 kts | 193° |
| 2026-04-14 12:39 | 41.26219 | 28.73430 | 337 ft | 8 kts | 261° |
| 2026-04-14 12:39 | 41.26219 | 28.73350 | 337 ft | 10 kts | 269° |
| 2026-04-14 12:39 | 41.26218 | 28.73251 | 337 ft | 12 kts | 269° |
| 2026-04-14 12:40 | 41.26217 | 28.73133 | 337 ft | 14 kts | 269° |
| 2026-04-14 12:40 | 41.26216 | 28.73010 | 337 ft | 3 kts | 269° |
| 2026-04-14 12:40 | 41.26216 | 28.73001 | 337 ft | 2 kts | 269° |
| 2026-04-14 12:40 | 41.26215 | 28.72966 | 337 ft | 7 kts | 269° |
| 2026-04-14 12:41 | 41.26214 | 28.72867 | 340 ft | 14 kts | 269° |
| 2026-04-14 12:41 | 41.26212 | 28.72693 | 340 ft | 22 kts | 269° |
| 2026-04-14 12:41 | 41.26233 | 28.72535 | 337 ft | 14 kts | 313° |
| 2026-04-14 12:41 | 41.26321 | 28.72515 | 336 ft | 13 kts | 358° |
| 2026-04-14 12:42 | 41.26493 | 28.72515 | 336 ft | 53 kts | 359° |
| 2026-04-14 12:42 | 41.27176 | 28.72504 | 338 ft | 139 kts | 359° |
| 2026-04-14 12:42 | 41.28325 | 28.72449 | 483 ft | 187 kts | 2° |
| 2026-04-14 12:42 | 41.29648 | 28.72393 | 1347 ft | 188 kts | 3° |
| 2026-04-14 12:43 | 41.31009 | 28.72218 | 2021 ft | 206 kts | 358° |
| 2026-04-14 12:43 | 41.32525 | 28.72135 | 2492 ft | 230 kts | 4° |
| 2026-04-14 12:43 | 41.34199 | 28.72184 | 2994 ft | 251 kts | 5° |
| 2026-04-14 12:43 | 41.35992 | 28.72245 | 3469 ft | 266 kts | 4° |
| 2026-04-14 12:44 | 41.37863 | 28.72269 | 4173 ft | 270 kts | 0° |
| 2026-04-14 12:44 | 41.39750 | 28.72262 | 4914 ft | 273 kts | 358° |
| 2026-04-14 12:44 | 41.41662 | 28.72229 | 5664 ft | 274 kts | 357° |
| 2026-04-14 12:45 | 41.45502 | 28.72137 | 7273 ft | 275 kts | 355° |
| 2026-04-14 12:45 | 41.47410 | 28.72089 | 7964 ft | 279 kts | 355° |
| 2026-04-14 12:45 | 41.49359 | 28.72012 | 8695 ft | 280 kts | 351° |
| 2026-04-14 12:45 | 41.51246 | 28.71450 | 9459 ft | 276 kts | 335° |
| 2026-04-14 12:46 | 41.52937 | 28.70280 | 10254 ft | 271 kts | 321° |
| 2026-04-14 12:46 | 41.54327 | 28.68595 | 10942 ft | 271 kts | 309° |
| 2026-04-14 12:46 | 41.55535 | 28.66590 | 11162 ft | 290 kts | 304° |
| 2026-04-14 12:46 | 41.56767 | 28.64324 | 11348 ft | 311 kts | 303° |
| 2026-04-14 12:47 | 41.58069 | 28.61938 | 11777 ft | 320 kts | 304° |
| 2026-04-14 12:47 | 41.59410 | 28.59548 | 12445 ft | 323 kts | 305° |
| 2026-04-14 12:47 | 41.60767 | 28.57176 | 13075 ft | 326 kts | 305° |
| 2026-04-14 12:47 | 41.62162 | 28.54760 | 13720 ft | 329 kts | 306° |
| 2026-04-14 12:48 | 41.63573 | 28.52324 | 14321 ft | 332 kts | 306° |
| 2026-04-14 12:48 | 41.64994 | 28.49870 | 14909 ft | 334 kts | 305° |
| 2026-04-14 12:48 | 41.66409 | 28.47390 | 15496 ft | 336 kts | 303° |
| 2026-04-14 12:48 | 41.67610 | 28.44750 | 16066 ft | 336 kts | 295° |
| 2026-04-14 12:49 | 41.68571 | 28.41896 | 16654 ft | 338 kts | 291° |
| 2026-04-14 12:49 | 41.69499 | 28.38996 | 17248 ft | 340 kts | 291° |
| 2026-04-14 12:49 | 41.70445 | 28.36087 | 17817 ft | 342 kts | 292° |
| 2026-04-14 12:49 | 41.71401 | 28.33161 | 18454 ft | 343 kts | 291° |
| 2026-04-14 12:50 | 41.72366 | 28.30212 | 18956 ft | 346 kts | 291° |
| 2026-04-14 12:50 | 41.74299 | 28.24289 | 19963 ft | 351 kts | 291° |
| 2026-04-14 12:50 | 41.75281 | 28.21274 | 20477 ft | 353 kts | 291° |
| 2026-04-14 12:51 | 41.76263 | 28.18252 | 20976 ft | 356 kts | 291° |
| 2026-04-14 12:51 | 41.77256 | 28.15192 | 21476 ft | 359 kts | 291° |
| 2026-04-14 12:51 | 41.78253 | 28.12116 | 21989 ft | 361 kts | 291° |
| 2026-04-14 12:51 | 41.79325 | 28.09097 | 22487 ft | 366 kts | 295° |
| 2026-04-14 12:52 | 41.80694 | 28.06195 | 23004 ft | 371 kts | 302° |
| 2026-04-14 12:52 | 41.82270 | 28.03429 | 23618 ft | 372 kts | 303° |
| 2026-04-14 12:52 | 41.83846 | 28.00653 | 24063 ft | 375 kts | 303° |
| 2026-04-14 12:52 | 41.85422 | 27.97849 | 24577 ft | 376 kts | 303° |
| 2026-04-14 12:53 | 41.86997 | 27.95040 | 25086 ft | 376 kts | 302° |
| 2026-04-14 12:53 | 41.88552 | 27.92260 | 25543 ft | 377 kts | 302° |
| 2026-04-14 12:53 | 41.90131 | 27.89438 | 26055 ft | 378 kts | 302° |
| 2026-04-14 12:53 | 41.91712 | 27.86608 | 26522 ft | 379 kts | 302° |
| 2026-04-14 12:54 | 41.93298 | 27.83768 | 26987 ft | 381 kts | 302° |
| 2026-04-14 12:54 | 41.94913 | 27.80873 | 27272 ft | 387 kts | 302° |
| 2026-04-14 12:54 | 41.96555 | 27.77994 | 27784 ft | 389 kts | 304° |
| 2026-04-14 12:54 | 41.98384 | 27.75345 | 28273 ft | 393 kts | 309° |
| 2026-04-14 12:55 | 42.00323 | 27.72730 | 28684 ft | 394 kts | 309° |
| 2026-04-14 12:55 | 42.02257 | 27.70093 | 29123 ft | 395 kts | 308° |
| 2026-04-14 12:55 | 42.04194 | 27.67442 | 29542 ft | 397 kts | 308° |
| 2026-04-14 12:55 | 42.06102 | 27.64826 | 29944 ft | 398 kts | 308° |
| 2026-04-14 12:56 | 42.08050 | 27.62153 | 30388 ft | 399 kts | 308° |
| 2026-04-14 12:56 | 42.10009 | 27.59465 | 30619 ft | 405 kts | 308° |
| 2026-04-14 12:56 | 42.11988 | 27.56744 | 30962 ft | 407 kts | 308° |
| 2026-04-14 12:56 | 42.13947 | 27.54049 | 31341 ft | 408 kts | 308° |
| 2026-04-14 12:57 | 42.15947 | 27.51293 | 31628 ft | 412 kts | 308° |
| 2026-04-14 12:57 | 42.17960 | 27.48519 | 31975 ft | 414 kts | 308° |
| 2026-04-14 12:57 | 42.19982 | 27.45731 | 32312 ft | 416 kts | 308° |
| 2026-04-14 12:57 | 42.22006 | 27.42935 | 32622 ft | 418 kts | 308° |
| 2026-04-14 12:58 | 42.24047 | 27.40114 | 32901 ft | 420 kts | 308° |
| 2026-04-14 12:58 | 42.26075 | 27.37308 | 33086 ft | 424 kts | 308° |
| 2026-04-14 12:58 | 42.28140 | 27.34449 | 33314 ft | 425 kts | 308° |
| 2026-04-14 12:58 | 42.30220 | 27.31565 | 33520 ft | 427 kts | 308° |
| 2026-04-14 12:59 | 42.32300 | 27.28680 | 33723 ft | 428 kts | 308° |
| 2026-04-14 12:59 | 42.34354 | 27.25829 | 33916 ft | 428 kts | 308° |
| 2026-04-14 12:59 | 42.36438 | 27.22932 | 34149 ft | 428 kts | 308° |
| 2026-04-14 12:59 | 42.38516 | 27.20040 | 34356 ft | 428 kts | 308° |
| 2026-04-14 13:00 | 42.40571 | 27.17177 | 34544 ft | 427 kts | 308° |
| 2026-04-14 13:00 | 42.42648 | 27.14281 | 34652 ft | 430 kts | 308° |
| 2026-04-14 13:00 | 42.44741 | 27.11355 | 34796 ft | 432 kts | 309° |
| 2026-04-14 13:00 | 42.46836 | 27.08423 | 34927 ft | 433 kts | 309° |
| 2026-04-14 13:01 | 42.48940 | 27.05481 | 35109 ft | 433 kts | 309° |
| 2026-04-14 13:01 | 42.51014 | 27.02577 | 35291 ft | 433 kts | 309° |
| 2026-04-14 13:01 | 42.53115 | 26.99633 | 35462 ft | 433 kts | 309° |
| 2026-04-14 13:01 | 42.55211 | 26.96692 | 35620 ft | 433 kts | 309° |
| 2026-04-14 13:02 | 42.57310 | 26.93744 | 35824 ft | 434 kts | 309° |
| 2026-04-14 13:02 | 42.61526 | 26.87812 | 36074 ft | 437 kts | 309° |
| 2026-04-14 13:02 | 42.63637 | 26.84838 | 36235 ft | 437 kts | 309° |
| 2026-04-14 13:03 | 42.65716 | 26.81905 | 36400 ft | 437 kts | 309° |
| 2026-04-14 13:03 | 42.67834 | 26.78916 | 36588 ft | 437 kts | 309° |
| 2026-04-14 13:03 | 42.69951 | 26.75923 | 36759 ft | 437 kts | 309° |
| 2026-04-14 13:03 | 42.72059 | 26.72940 | 36934 ft | 437 kts | 309° |
| 2026-04-14 13:04 | 42.74139 | 26.69993 | 37067 ft | 438 kts | 309° |
| 2026-04-14 13:04 | 42.78389 | 26.63960 | 37298 ft | 441 kts | 309° |
| 2026-04-14 13:04 | 42.80489 | 26.60911 | 37468 ft | 439 kts | 307° |
| 2026-04-14 13:05 | 42.82380 | 26.57637 | 37633 ft | 437 kts | 302° |
| 2026-04-14 13:05 | 42.84021 | 26.54218 | 37776 ft | 435 kts | 299° |
| 2026-04-14 13:05 | 42.85660 | 26.50747 | 37937 ft | 436 kts | 300° |
| 2026-04-14 13:05 | 42.87319 | 26.47274 | 38119 ft | 436 kts | 300° |
| 2026-04-14 13:06 | 42.88980 | 26.43802 | 38223 ft | 437 kts | 300° |
| 2026-04-14 13:06 | 42.90646 | 26.40312 | 38355 ft | 438 kts | 300° |
| 2026-04-14 13:06 | 42.92307 | 26.36821 | 38518 ft | 438 kts | 300° |
| 2026-04-14 13:06 | 42.93942 | 26.33379 | 38662 ft | 438 kts | 300° |
| 2026-04-14 13:07 | 42.95601 | 26.29880 | 38828 ft | 438 kts | 300° |
| 2026-04-14 13:07 | 42.97256 | 26.26381 | 38940 ft | 438 kts | 300° |
| 2026-04-14 13:07 | 42.98917 | 26.22868 | 39055 ft | 438 kts | 300° |
| 2026-04-14 13:07 | 43.00567 | 26.19372 | 39174 ft | 438 kts | 300° |
| 2026-04-14 13:08 | 43.02201 | 26.15911 | 39250 ft | 440 kts | 300° |
| 2026-04-14 13:08 | 43.05522 | 26.08856 | 39456 ft | 441 kts | 300° |
| 2026-04-14 13:09 | 43.08845 | 26.01783 | 39656 ft | 441 kts | 300° |
| 2026-04-14 13:09 | 43.10505 | 25.98243 | 39768 ft | 441 kts | 300° |
| 2026-04-14 13:09 | 43.12162 | 25.94705 | 39869 ft | 442 kts | 300° |
| 2026-04-14 13:09 | 43.13799 | 25.91206 | 39986 ft | 442 kts | 300° |
| 2026-04-14 13:10 | 43.15471 | 25.87625 | 40039 ft | 444 kts | 300° |
| 2026-04-14 13:10 | 43.18798 | 25.80494 | 40157 ft | 444 kts | 300° |
| 2026-04-14 13:11 | 43.22121 | 25.73352 | 40159 ft | 443 kts | 300° |
| 2026-04-14 13:11 | 43.25423 | 25.66238 | 40158 ft | 443 kts | 300° |
| 2026-04-14 13:12 | 43.28724 | 25.59108 | 40158 ft | 443 kts | 300° |
| 2026-04-14 13:12 | 43.32036 | 25.51936 | 40158 ft | 443 kts | 300° |
| 2026-04-14 13:13 | 43.35325 | 25.44798 | 40155 ft | 443 kts | 300° |
| 2026-04-14 13:13 | 43.38620 | 25.37630 | 40157 ft | 443 kts | 300° |
| 2026-04-14 13:14 | 43.41896 | 25.30486 | 40166 ft | 444 kts | 300° |
| 2026-04-14 13:14 | 43.45193 | 25.23276 | 40166 ft | 444 kts | 300° |
| 2026-04-14 13:15 | 43.48469 | 25.16096 | 40162 ft | 445 kts | 300° |
| 2026-04-14 13:15 | 43.51763 | 25.08860 | 40150 ft | 445 kts | 300° |
| 2026-04-14 13:16 | 43.55028 | 25.01665 | 40148 ft | 446 kts | 300° |
| 2026-04-14 13:16 | 43.58312 | 24.94413 | 40152 ft | 446 kts | 300° |
| 2026-04-14 13:17 | 43.61604 | 24.87127 | 40176 ft | 446 kts | 300° |
| 2026-04-14 13:17 | 43.64888 | 24.79840 | 40184 ft | 447 kts | 300° |
| 2026-04-14 13:18 | 43.68152 | 24.72580 | 40166 ft | 447 kts | 300° |
| 2026-04-14 13:18 | 43.71427 | 24.65275 | 40161 ft | 447 kts | 300° |
| 2026-04-14 13:19 | 43.74721 | 24.57942 | 40164 ft | 448 kts | 301° |
| 2026-04-14 13:19 | 43.78561 | 24.51167 | 40169 ft | 450 kts | 309° |
| 2026-04-14 13:20 | 43.82652 | 24.44573 | 40171 ft | 451 kts | 308° |
| 2026-04-14 13:20 | 43.86711 | 24.37995 | 40173 ft | 451 kts | 308° |
| 2026-04-14 13:21 | 43.90804 | 24.31359 | 40184 ft | 452 kts | 308° |
| 2026-04-14 13:21 | 43.94893 | 24.24711 | 40172 ft | 453 kts | 308° |
| 2026-04-14 13:22 | 43.98961 | 24.18080 | 40176 ft | 454 kts | 308° |
| 2026-04-14 13:22 | 44.03053 | 24.11394 | 40178 ft | 454 kts | 308° |
| 2026-04-14 13:23 | 44.07134 | 24.04709 | 40185 ft | 454 kts | 308° |
| 2026-04-14 13:23 | 44.11230 | 23.97984 | 40183 ft | 455 kts | 308° |
| 2026-04-14 13:24 | 44.15301 | 23.91284 | 40182 ft | 455 kts | 308° |
| 2026-04-14 13:24 | 44.21432 | 23.81165 | 40187 ft | 456 kts | 308° |
| 2026-04-14 13:25 | 44.24861 | 23.75490 | 40187 ft | 456 kts | 308° |
| 2026-04-14 13:26 | 44.33010 | 23.61958 | 40204 ft | 456 kts | 308° |
| 2026-04-14 13:26 | 44.37068 | 23.55196 | 40196 ft | 456 kts | 308° |
| 2026-04-14 13:27 | 44.41150 | 23.48377 | 40192 ft | 456 kts | 308° |
| 2026-04-14 13:27 | 44.45201 | 23.41593 | 40186 ft | 456 kts | 308° |
| 2026-04-14 13:28 | 44.49272 | 23.34762 | 40186 ft | 456 kts | 308° |
| 2026-04-14 13:28 | 44.53344 | 23.27909 | 40184 ft | 457 kts | 308° |
| 2026-04-14 13:29 | 44.57401 | 23.21066 | 40187 ft | 457 kts | 308° |
| 2026-04-14 13:29 | 44.61447 | 23.14227 | 40182 ft | 457 kts | 308° |
| 2026-04-14 13:30 | 44.65519 | 23.07327 | 40184 ft | 457 kts | 308° |
| 2026-04-14 13:30 | 44.69578 | 23.00432 | 40190 ft | 458 kts | 308° |
| 2026-04-14 13:31 | 44.73609 | 22.93567 | 40187 ft | 458 kts | 308° |
| 2026-04-14 13:31 | 44.77678 | 22.86621 | 40186 ft | 458 kts | 308° |
| 2026-04-14 13:32 | 44.81700 | 22.79738 | 40188 ft | 458 kts | 308° |
| 2026-04-14 13:32 | 44.85754 | 22.72785 | 40185 ft | 458 kts | 307° |
| 2026-04-14 13:33 | 44.89802 | 22.65824 | 40184 ft | 458 kts | 307° |
| 2026-04-14 13:33 | 44.93812 | 22.58912 | 40174 ft | 458 kts | 307° |
| 2026-04-14 13:34 | 44.99848 | 22.48480 | 40175 ft | 457 kts | 307° |
| 2026-04-14 13:35 | 45.03875 | 22.41496 | 40164 ft | 457 kts | 307° |
| 2026-04-14 13:35 | 45.07866 | 22.34553 | 40141 ft | 458 kts | 307° |
| 2026-04-14 13:36 | 45.11897 | 22.27527 | 40141 ft | 458 kts | 307° |
| 2026-04-14 13:36 | 45.15892 | 22.20548 | 40125 ft | 458 kts | 307° |
| 2026-04-14 13:37 | 45.19898 | 22.13535 | 40128 ft | 457 kts | 307° |
| 2026-04-14 13:37 | 45.23871 | 22.06560 | 40113 ft | 455 kts | 306° |
| 2026-04-14 13:38 | 45.27840 | 21.99575 | 40119 ft | 454 kts | 306° |
| 2026-04-14 13:38 | 45.31816 | 21.92553 | 40102 ft | 458 kts | 307° |
| 2026-04-14 13:39 | 45.35814 | 21.85485 | 40087 ft | 455 kts | 306° |
| 2026-04-14 13:39 | 45.39745 | 21.78509 | 40095 ft | 457 kts | 307° |
| 2026-04-14 13:40 | 45.43750 | 21.71387 | 40092 ft | 462 kts | 307° |
| 2026-04-14 13:40 | 45.47762 | 21.64240 | 40094 ft | 461 kts | 307° |
| 2026-04-14 13:41 | 45.51742 | 21.57129 | 40090 ft | 461 kts | 307° |
| 2026-04-14 13:41 | 45.55748 | 21.49953 | 40086 ft | 461 kts | 307° |
| 2026-04-14 13:42 | 45.59750 | 21.42766 | 40088 ft | 462 kts | 307° |
| 2026-04-14 13:42 | 45.63743 | 21.35576 | 40092 ft | 462 kts | 307° |
| 2026-04-14 13:43 | 45.67740 | 21.28361 | 40093 ft | 462 kts | 307° |
| 2026-04-14 13:43 | 45.71708 | 21.21181 | 40109 ft | 462 kts | 307° |
| 2026-04-14 13:44 | 45.75700 | 21.13937 | 40107 ft | 462 kts | 306° |
| 2026-04-14 13:44 | 45.79668 | 21.06717 | 40105 ft | 462 kts | 306° |
| 2026-04-14 13:45 | 45.83618 | 20.99513 | 40104 ft | 462 kts | 306° |
| 2026-04-14 13:45 | 45.87594 | 20.92243 | 40105 ft | 462 kts | 306° |
| 2026-04-14 13:46 | 45.91538 | 20.85016 | 40104 ft | 462 kts | 306° |
| 2026-04-14 13:46 | 45.95509 | 20.77718 | 40090 ft | 462 kts | 306° |
| 2026-04-14 13:47 | 45.99480 | 20.70401 | 40107 ft | 462 kts | 306° |
| 2026-04-14 13:47 | 46.03413 | 20.63134 | 40123 ft | 462 kts | 306° |
| 2026-04-14 13:48 | 46.07351 | 20.55841 | 40123 ft | 462 kts | 306° |
| 2026-04-14 13:48 | 46.11306 | 20.48505 | 40102 ft | 462 kts | 306° |
| 2026-04-14 13:49 | 46.15223 | 20.41224 | 40101 ft | 462 kts | 306° |
| 2026-04-14 13:49 | 46.19158 | 20.33883 | 40106 ft | 462 kts | 306° |
| 2026-04-14 13:50 | 46.23098 | 20.26547 | 40131 ft | 462 kts | 306° |
| 2026-04-14 13:50 | 46.27021 | 20.19243 | 40112 ft | 462 kts | 306° |
| 2026-04-14 13:51 | 46.30961 | 20.11885 | 40106 ft | 462 kts | 306° |
| 2026-04-14 13:51 | 46.34889 | 20.04527 | 40110 ft | 462 kts | 306° |
| 2026-04-14 13:52 | 46.38814 | 19.97148 | 40135 ft | 461 kts | 306° |
| 2026-04-14 13:52 | 46.42703 | 19.89817 | 40133 ft | 461 kts | 306° |
| 2026-04-14 13:53 | 46.46615 | 19.82427 | 40135 ft | 462 kts | 306° |
| 2026-04-14 13:53 | 46.50499 | 19.75071 | 40108 ft | 462 kts | 306° |
| 2026-04-14 13:54 | 46.54421 | 19.67621 | 40113 ft | 462 kts | 306° |
| 2026-04-14 13:54 | 46.58303 | 19.60229 | 40115 ft | 462 kts | 306° |
| 2026-04-14 13:55 | 46.62189 | 19.52811 | 40122 ft | 462 kts | 306° |
| 2026-04-14 13:55 | 46.66090 | 19.45344 | 40106 ft | 464 kts | 305° |
| 2026-04-14 13:56 | 46.69963 | 19.37904 | 40112 ft | 462 kts | 306° |
| 2026-04-14 13:56 | 46.73851 | 19.30420 | 40108 ft | 463 kts | 306° |
| 2026-04-14 13:57 | 46.77744 | 19.22912 | 40116 ft | 462 kts | 305° |
| 2026-04-14 13:57 | 46.81626 | 19.15395 | 40114 ft | 463 kts | 305° |
| 2026-04-14 13:58 | 46.85475 | 19.07930 | 40110 ft | 461 kts | 305° |
| 2026-04-14 13:58 | 46.89296 | 19.00495 | 40097 ft | 460 kts | 305° |
| 2026-04-14 13:59 | 46.93143 | 18.92989 | 40094 ft | 459 kts | 305° |
| 2026-04-14 13:59 | 46.96968 | 18.85505 | 40115 ft | 463 kts | 305° |
| 2026-04-14 14:00 | 47.00844 | 18.77903 | 40114 ft | 463 kts | 305° |
| 2026-04-14 14:00 | 47.04686 | 18.70348 | 40116 ft | 464 kts | 305° |
| 2026-04-14 14:01 | 47.08541 | 18.62744 | 40114 ft | 464 kts | 305° |
| 2026-04-14 14:01 | 47.12372 | 18.55166 | 40110 ft | 464 kts | 305° |
| 2026-04-14 14:02 | 47.16230 | 18.47516 | 40114 ft | 464 kts | 305° |
| 2026-04-14 14:02 | 47.20058 | 18.39903 | 40108 ft | 465 kts | 304° |
| 2026-04-14 14:03 | 47.23907 | 18.32229 | 40117 ft | 465 kts | 304° |
| 2026-04-14 14:03 | 47.27726 | 18.24589 | 40110 ft | 465 kts | 304° |
| 2026-04-14 14:04 | 47.31569 | 18.16884 | 40113 ft | 465 kts | 304° |
| 2026-04-14 14:04 | 47.35377 | 18.09223 | 40104 ft | 465 kts | 304° |
| 2026-04-14 14:05 | 47.39195 | 18.01524 | 40107 ft | 466 kts | 304° |
| 2026-04-14 14:05 | 47.43009 | 17.93814 | 40111 ft | 466 kts | 304° |
| 2026-04-14 14:06 | 47.46801 | 17.86123 | 40103 ft | 466 kts | 304° |
| 2026-04-14 14:06 | 47.50630 | 17.78336 | 40133 ft | 466 kts | 304° |
| 2026-04-14 14:07 | 47.54423 | 17.70600 | 40129 ft | 466 kts | 304° |
| 2026-04-14 14:07 | 47.58242 | 17.62791 | 40126 ft | 466 kts | 304° |
| 2026-04-14 14:08 | 47.62053 | 17.54974 | 40121 ft | 466 kts | 304° |
| 2026-04-14 14:08 | 47.65835 | 17.47195 | 40118 ft | 466 kts | 304° |
| 2026-04-14 14:09 | 47.69599 | 17.39432 | 40113 ft | 466 kts | 304° |
| 2026-04-14 14:09 | 47.73377 | 17.31617 | 40113 ft | 466 kts | 304° |
| 2026-04-14 14:10 | 47.77157 | 17.23776 | 40120 ft | 466 kts | 304° |
| 2026-04-14 14:10 | 47.80914 | 17.15969 | 40114 ft | 466 kts | 304° |
| 2026-04-14 14:11 | 47.84752 | 17.08125 | 40116 ft | 467 kts | 307° |
| 2026-04-14 14:11 | 47.88901 | 17.00732 | 40117 ft | 467 kts | 308° |
| 2026-04-14 14:12 | 47.93081 | 16.93310 | 40121 ft | 467 kts | 308° |
| 2026-04-14 14:12 | 47.97193 | 16.85864 | 40122 ft | 467 kts | 307° |
| 2026-04-14 14:13 | 48.01294 | 16.78382 | 40123 ft | 467 kts | 307° |
| 2026-04-14 14:13 | 48.05411 | 16.70849 | 40129 ft | 467 kts | 307° |
| 2026-04-14 14:14 | 48.08839 | 16.64564 | 40130 ft | 467 kts | 307° |
| 2026-04-14 14:14 | 48.12917 | 16.57065 | 40127 ft | 466 kts | 307° |
| 2026-04-14 14:15 | 48.17014 | 16.49513 | 40130 ft | 466 kts | 307° |
| 2026-04-14 14:15 | 48.21100 | 16.41958 | 40129 ft | 466 kts | 307° |
| 2026-04-14 14:16 | 48.25158 | 16.34435 | 40141 ft | 466 kts | 307° |
| 2026-04-14 14:16 | 48.29233 | 16.26859 | 40136 ft | 466 kts | 307° |
| 2026-04-14 14:17 | 48.35324 | 16.15494 | 40135 ft | 466 kts | 307° |
| 2026-04-14 14:17 | 48.39386 | 16.07887 | 40138 ft | 465 kts | 307° |
| 2026-04-14 14:18 | 48.43433 | 16.00289 | 40137 ft | 465 kts | 307° |
| 2026-04-14 14:18 | 48.47479 | 15.92671 | 40134 ft | 464 kts | 307° |
| 2026-04-14 14:19 | 48.51482 | 15.85113 | 40134 ft | 464 kts | 307° |
| 2026-04-14 14:19 | 48.55513 | 15.77480 | 40133 ft | 464 kts | 307° |
| 2026-04-14 14:20 | 48.59512 | 15.69884 | 40133 ft | 464 kts | 307° |
| 2026-04-14 14:20 | 48.63531 | 15.62232 | 40130 ft | 464 kts | 307° |
| 2026-04-14 14:21 | 48.67547 | 15.54563 | 40132 ft | 464 kts | 307° |
| 2026-04-14 14:21 | 48.71528 | 15.46935 | 40129 ft | 464 kts | 307° |
| 2026-04-14 14:22 | 48.75526 | 15.39256 | 40118 ft | 464 kts | 307° |
| 2026-04-14 14:22 | 48.79520 | 15.31563 | 40117 ft | 465 kts | 307° |
| 2026-04-14 14:23 | 48.83510 | 15.23856 | 40121 ft | 465 kts | 307° |
| 2026-04-14 14:23 | 48.87509 | 15.16109 | 40116 ft | 466 kts | 307° |
| 2026-04-14 14:24 | 48.91470 | 15.08368 | 40121 ft | 466 kts | 306° |
| 2026-04-14 14:24 | 48.95333 | 15.00400 | 40103 ft | 467 kts | 305° |
| 2026-04-14 14:25 | 48.99164 | 14.92482 | 40098 ft | 467 kts | 305° |
| 2026-04-14 14:25 | 49.03038 | 14.84500 | 40102 ft | 467 kts | 305° |
| 2026-04-14 14:26 | 49.06902 | 14.76521 | 40098 ft | 468 kts | 305° |
| 2026-04-14 14:26 | 49.10764 | 14.68525 | 40099 ft | 468 kts | 305° |
| 2026-04-14 14:27 | 49.14606 | 14.60545 | 40088 ft | 467 kts | 305° |
| 2026-04-14 14:27 | 49.18450 | 14.52536 | 40088 ft | 467 kts | 305° |
| 2026-04-14 14:28 | 49.22278 | 14.44535 | 40087 ft | 467 kts | 305° |
| 2026-04-14 14:28 | 49.26126 | 14.36470 | 40089 ft | 467 kts | 305° |
| 2026-04-14 14:29 | 49.29959 | 14.28412 | 40084 ft | 467 kts | 304° |
| 2026-04-14 14:29 | 49.33755 | 14.20410 | 40083 ft | 467 kts | 304° |
| 2026-04-14 14:30 | 49.37570 | 14.12340 | 40087 ft | 467 kts | 304° |
| 2026-04-14 14:30 | 49.41361 | 14.04296 | 40094 ft | 466 kts | 304° |
| 2026-04-14 14:31 | 49.45171 | 13.96189 | 40088 ft | 466 kts | 304° |
| 2026-04-14 14:31 | 49.48961 | 13.88101 | 40091 ft | 466 kts | 304° |
| 2026-04-14 14:32 | 49.52728 | 13.80035 | 40095 ft | 466 kts | 304° |
| 2026-04-14 14:32 | 49.56514 | 13.71907 | 40108 ft | 466 kts | 304° |
| 2026-04-14 14:33 | 49.60275 | 13.63804 | 40111 ft | 466 kts | 304° |
| 2026-04-14 14:33 | 49.64043 | 13.55664 | 40124 ft | 466 kts | 304° |
| 2026-04-14 14:34 | 49.69681 | 13.43437 | 40130 ft | 466 kts | 304° |
| 2026-04-14 14:35 | 49.73431 | 13.35272 | 40128 ft | 466 kts | 304° |
| 2026-04-14 14:35 | 49.77163 | 13.27123 | 40128 ft | 465 kts | 304° |
| 2026-04-14 14:36 | 49.80906 | 13.18922 | 40125 ft | 465 kts | 304° |
| 2026-04-14 14:36 | 49.84599 | 13.10808 | 40115 ft | 465 kts | 304° |
| 2026-04-14 14:37 | 49.88322 | 13.02603 | 40119 ft | 465 kts | 304° |
| 2026-04-14 14:37 | 49.92059 | 12.94340 | 40123 ft | 465 kts | 303° |
| 2026-04-14 14:38 | 49.95754 | 12.86145 | 40132 ft | 465 kts | 303° |
| 2026-04-14 14:38 | 49.99472 | 12.77872 | 40141 ft | 466 kts | 304° |
| 2026-04-14 14:39 | 50.03185 | 12.69585 | 40139 ft | 466 kts | 303° |
| 2026-04-14 14:39 | 50.06869 | 12.61339 | 40147 ft | 466 kts | 303° |
| 2026-04-14 14:40 | 50.10567 | 12.53033 | 40147 ft | 467 kts | 303° |
| 2026-04-14 14:40 | 50.14257 | 12.44722 | 40155 ft | 467 kts | 303° |
| 2026-04-14 14:41 | 50.17749 | 12.36265 | 40158 ft | 465 kts | 298° |
| 2026-04-14 14:41 | 50.20549 | 12.27141 | 40166 ft | 464 kts | 291° |
| 2026-04-14 14:42 | 50.22733 | 12.17713 | 40173 ft | 464 kts | 289° |
| 2026-04-14 14:42 | 50.24937 | 12.08217 | 40183 ft | 464 kts | 289° |
| 2026-04-14 14:43 | 50.27114 | 11.98723 | 40188 ft | 464 kts | 289° |
| 2026-04-14 14:43 | 50.29290 | 11.89253 | 40184 ft | 463 kts | 289° |
| 2026-04-14 14:44 | 50.31463 | 11.79760 | 40187 ft | 463 kts | 289° |
| 2026-04-14 14:44 | 50.33628 | 11.70251 | 40181 ft | 463 kts | 289° |
| 2026-04-14 14:45 | 50.35769 | 11.60795 | 40184 ft | 462 kts | 289° |
| 2026-04-14 14:45 | 50.37909 | 11.51297 | 40170 ft | 462 kts | 289° |
| 2026-04-14 14:45 | 50.38980 | 11.46530 | 39982 ft | 461 kts | 289° |
| 2026-04-14 14:46 | 50.40041 | 11.41800 | 39754 ft | 459 kts | 289° |
| 2026-04-14 14:46 | 50.41083 | 11.37143 | 39522 ft | 458 kts | 289° |
| 2026-04-14 14:46 | 50.42137 | 11.32421 | 39302 ft | 459 kts | 289° |
| 2026-04-14 14:46 | 50.43187 | 11.27700 | 39078 ft | 459 kts | 289° |
| 2026-04-14 14:47 | 50.44243 | 11.22939 | 38863 ft | 459 kts | 289° |
| 2026-04-14 14:47 | 50.45290 | 11.18206 | 38584 ft | 458 kts | 289° |
| 2026-04-14 14:47 | 50.46323 | 11.13520 | 38311 ft | 458 kts | 289° |
| 2026-04-14 14:47 | 50.47366 | 11.08783 | 38016 ft | 458 kts | 289° |
| 2026-04-14 14:48 | 50.48408 | 11.04040 | 37360 ft | 460 kts | 289° |
| 2026-04-14 14:48 | 50.49440 | 10.99331 | 36465 ft | 461 kts | 289° |
| 2026-04-14 14:48 | 50.50493 | 10.94520 | 35320 ft | 464 kts | 289° |
| 2026-04-14 14:48 | 50.51529 | 10.89775 | 34144 ft | 466 kts | 289° |
| 2026-04-14 14:49 | 50.52575 | 10.84973 | 33049 ft | 462 kts | 288° |
| 2026-04-14 14:49 | 50.53616 | 10.80196 | 31964 ft | 459 kts | 288° |
| 2026-04-14 14:49 | 50.54676 | 10.75472 | 31158 ft | 454 kts | 288° |
| 2026-04-14 14:49 | 50.55726 | 10.70888 | 30612 ft | 447 kts | 288° |
| 2026-04-14 14:50 | 50.56776 | 10.66295 | 29949 ft | 442 kts | 288° |
| 2026-04-14 14:50 | 50.57804 | 10.61775 | 29322 ft | 435 kts | 288° |
| 2026-04-14 14:50 | 50.58816 | 10.57300 | 28686 ft | 429 kts | 288° |
| 2026-04-14 14:50 | 50.59813 | 10.52887 | 28086 ft | 422 kts | 288° |
| 2026-04-14 14:51 | 50.60777 | 10.48619 | 27493 ft | 417 kts | 288° |
| 2026-04-14 14:51 | 50.61736 | 10.44367 | 26899 ft | 411 kts | 288° |
| 2026-04-14 14:51 | 50.62689 | 10.40138 | 26308 ft | 406 kts | 288° |
| 2026-04-14 14:51 | 50.63627 | 10.35964 | 25727 ft | 401 kts | 287° |
| 2026-04-14 14:52 | 50.64279 | 10.31728 | 25159 ft | 393 kts | 275° |
| 2026-04-14 14:52 | 50.64283 | 10.27505 | 24560 ft | 388 kts | 262° |
| 2026-04-14 14:52 | 50.63682 | 10.23420 | 23858 ft | 389 kts | 249° |
| 2026-04-14 14:52 | 50.62476 | 10.19519 | 23141 ft | 399 kts | 240° |
| 2026-04-14 14:53 | 50.61111 | 10.15690 | 22406 ft | 400 kts | 241° |
| 2026-04-14 14:53 | 50.59788 | 10.11907 | 21692 ft | 395 kts | 242° |
| 2026-04-14 14:53 | 50.58579 | 10.08071 | 21190 ft | 386 kts | 243° |
| 2026-04-14 14:53 | 50.57340 | 10.04304 | 20925 ft | 389 kts | 243° |
| 2026-04-14 14:54 | 50.56090 | 10.00510 | 20670 ft | 389 kts | 243° |
| 2026-04-14 14:54 | 50.54855 | 9.96717 | 20412 ft | 387 kts | 243° |
| 2026-04-14 14:54 | 50.53639 | 9.92946 | 20168 ft | 385 kts | 243° |
| 2026-04-14 14:54 | 50.52445 | 9.89226 | 19920 ft | 386 kts | 243° |
| 2026-04-14 14:55 | 50.51241 | 9.85467 | 19697 ft | 383 kts | 244° |
| 2026-04-14 14:55 | 50.50036 | 9.81709 | 19453 ft | 382 kts | 244° |
| 2026-04-14 14:55 | 50.48853 | 9.78028 | 19215 ft | 382 kts | 244° |
| 2026-04-14 14:55 | 50.47644 | 9.74272 | 18971 ft | 389 kts | 244° |
| 2026-04-14 14:56 | 50.45215 | 9.66734 | 18487 ft | 381 kts | 244° |
| 2026-04-14 14:56 | 50.44017 | 9.63022 | 18189 ft | 382 kts | 244° |
| 2026-04-14 14:56 | 50.42824 | 9.59332 | 17624 ft | 382 kts | 244° |
| 2026-04-14 14:57 | 50.41629 | 9.55645 | 16970 ft | 375 kts | 244° |
| 2026-04-14 14:57 | 50.40456 | 9.52037 | 16328 ft | 367 kts | 244° |
| 2026-04-14 14:57 | 50.39313 | 9.48514 | 15699 ft | 361 kts | 244° |
| 2026-04-14 14:57 | 50.38193 | 9.45067 | 15085 ft | 354 kts | 244° |
| 2026-04-14 14:58 | 50.37085 | 9.41667 | 14483 ft | 347 kts | 243° |
| 2026-04-14 14:58 | 50.35990 | 9.38310 | 13868 ft | 341 kts | 243° |
| 2026-04-14 14:58 | 50.34918 | 9.35030 | 13198 ft | 334 kts | 243° |
| 2026-04-14 14:58 | 50.33870 | 9.31824 | 12546 ft | 329 kts | 243° |
| 2026-04-14 14:59 | 50.32833 | 9.28656 | 11909 ft | 323 kts | 243° |
| 2026-04-14 14:59 | 50.31824 | 9.25577 | 11296 ft | 318 kts | 243° |
| 2026-04-14 14:59 | 50.30820 | 9.22520 | 10690 ft | 313 kts | 243° |
| 2026-04-14 14:59 | 50.29851 | 9.19574 | 10472 ft | 295 kts | 243° |
| 2026-04-14 15:00 | 50.28937 | 9.16800 | 10114 ft | 283 kts | 243° |
| 2026-04-14 15:00 | 50.28345 | 9.15000 | 9929 ft | 276 kts | 243° |
| 2026-04-14 15:00 | 50.27462 | 9.12320 | 9787 ft | 278 kts | 243° |
| 2026-04-14 15:00 | 50.26678 | 9.09537 | 9653 ft | 279 kts | 250° |
| 2026-04-14 15:01 | 50.26032 | 9.06695 | 9523 ft | 276 kts | 250° |
| 2026-04-14 15:01 | 50.25387 | 9.03868 | 9392 ft | 280 kts | 250° |
| 2026-04-14 15:01 | 50.24725 | 9.01001 | 9259 ft | 279 kts | 250° |
| 2026-04-14 15:01 | 50.24057 | 8.98133 | 9128 ft | 280 kts | 250° |
| 2026-04-14 15:02 | 50.23389 | 8.95280 | 8995 ft | 278 kts | 250° |
| 2026-04-14 15:02 | 50.22718 | 8.92426 | 8866 ft | 279 kts | 250° |
| 2026-04-14 15:02 | 50.22058 | 8.89624 | 8732 ft | 279 kts | 251° |
| 2026-04-14 15:02 | 50.21386 | 8.86769 | 8608 ft | 280 kts | 250° |
| 2026-04-14 15:03 | 50.20715 | 8.83920 | 8477 ft | 279 kts | 251° |
| 2026-04-14 15:03 | 50.20041 | 8.81064 | 8351 ft | 280 kts | 250° |
| 2026-04-14 15:03 | 50.19365 | 8.78209 | 8220 ft | 280 kts | 251° |
| 2026-04-14 15:03 | 50.18689 | 8.75355 | 8182 ft | 280 kts | 251° |
| 2026-04-14 15:04 | 50.18021 | 8.72540 | 8183 ft | 280 kts | 251° |
| 2026-04-14 15:04 | 50.17344 | 8.69683 | 8166 ft | 280 kts | 251° |
| 2026-04-14 15:04 | 50.16667 | 8.66826 | 8036 ft | 280 kts | 251° |
| 2026-04-14 15:04 | 50.15997 | 8.64002 | 7910 ft | 280 kts | 251° |
| 2026-04-14 15:05 | 50.15319 | 8.61152 | 7779 ft | 279 kts | 251° |
| 2026-04-14 15:05 | 50.14651 | 8.58358 | 7699 ft | 269 kts | 251° |
| 2026-04-14 15:05 | 50.14016 | 8.55706 | 7557 ft | 253 kts | 252° |
| 2026-04-14 15:05 | 50.13410 | 8.53174 | 7197 ft | 246 kts | 252° |
| 2026-04-14 15:06 | 50.12818 | 8.50680 | 6950 ft | 253 kts | 252° |
| 2026-04-14 15:06 | 50.12176 | 8.47966 | 6851 ft | 278 kts | 251° |
| 2026-04-14 15:06 | 50.11497 | 8.45125 | 6728 ft | 278 kts | 251° |
| 2026-04-14 15:06 | 50.10810 | 8.42274 | 6608 ft | 281 kts | 251° |
| 2026-04-14 15:07 | 50.10127 | 8.39455 | 6477 ft | 281 kts | 251° |
| 2026-04-14 15:07 | 50.09439 | 8.36616 | 6349 ft | 279 kts | 251° |
| 2026-04-14 15:07 | 50.08755 | 8.33793 | 6212 ft | 279 kts | 251° |
| 2026-04-14 15:07 | 50.08076 | 8.30990 | 6079 ft | 278 kts | 251° |
| 2026-04-14 15:08 | 50.07392 | 8.28168 | 5954 ft | 277 kts | 251° |
| 2026-04-14 15:08 | 50.06712 | 8.25364 | 5812 ft | 276 kts | 251° |
| 2026-04-14 15:08 | 50.06038 | 8.22596 | 5692 ft | 274 kts | 251° |
| 2026-04-14 15:08 | 50.05356 | 8.19803 | 5546 ft | 273 kts | 251° |
| 2026-04-14 15:09 | 50.04689 | 8.17072 | 5423 ft | 273 kts | 251° |
| 2026-04-14 15:09 | 50.04014 | 8.14305 | 5309 ft | 272 kts | 251° |
| 2026-04-14 15:09 | 50.03341 | 8.11549 | 5167 ft | 271 kts | 251° |
| 2026-04-14 15:09 | 50.02668 | 8.08798 | 5050 ft | 270 kts | 251° |
| 2026-04-14 15:10 | 50.02009 | 8.06100 | 5002 ft | 270 kts | 251° |
| 2026-04-14 15:10 | 50.01342 | 8.03360 | 5003 ft | 271 kts | 251° |
| 2026-04-14 15:10 | 50.00457 | 8.00869 | 4999 ft | 254 kts | 230° |
| 2026-04-14 15:10 | 49.99075 | 7.99379 | 4999 ft | 238 kts | 200° |
| 2026-04-14 15:11 | 49.97397 | 7.99110 | 5001 ft | 244 kts | 170° |
| 2026-04-14 15:11 | 49.95867 | 8.00057 | 5000 ft | 240 kts | 142° |
| 2026-04-14 15:11 | 49.94835 | 8.02012 | 4994 ft | 229 kts | 111° |
| 2026-04-14 15:11 | 49.94534 | 8.04282 | 4992 ft | 205 kts | 92° |
| 2026-04-14 15:12 | 49.94383 | 8.06400 | 4993 ft | 190 kts | 93° |
| 2026-04-14 15:12 | 49.94253 | 8.08441 | 4990 ft | 193 kts | 89° |
| 2026-04-14 15:12 | 49.94382 | 8.10469 | 5012 ft | 189 kts | 74° |
| 2026-04-14 15:12 | 49.94762 | 8.12399 | 4997 ft | 184 kts | 67° |
| 2026-04-14 15:13 | 49.95219 | 8.14275 | 4993 ft | 186 kts | 66° |
| 2026-04-14 15:13 | 49.95674 | 8.16170 | 4994 ft | 186 kts | 67° |
| 2026-04-14 15:13 | 49.96108 | 8.17992 | 4909 ft | 177 kts | 66° |
| 2026-04-14 15:13 | 49.96532 | 8.19766 | 4664 ft | 175 kts | 66° |
| 2026-04-14 15:14 | 49.96956 | 8.21542 | 4403 ft | 170 kts | 67° |
| 2026-04-14 15:14 | 49.97352 | 8.23190 | 4168 ft | 162 kts | 66° |
| 2026-04-14 15:14 | 49.97752 | 8.24852 | 3916 ft | 162 kts | 66° |
| 2026-04-14 15:14 | 49.98145 | 8.26495 | 3688 ft | 162 kts | 66° |
| 2026-04-14 15:15 | 49.98533 | 8.28115 | 3461 ft | 161 kts | 66° |
| 2026-04-14 15:15 | 49.98922 | 8.29736 | 3229 ft | 162 kts | 67° |
| 2026-04-14 15:15 | 49.99315 | 8.31373 | 2986 ft | 160 kts | 67° |
| 2026-04-14 15:15 | 49.99708 | 8.33013 | 2749 ft | 161 kts | 66° |
| 2026-04-14 15:16 | 50.00096 | 8.34633 | 2527 ft | 162 kts | 67° |
| 2026-04-14 15:16 | 50.00481 | 8.36240 | 2293 ft | 157 kts | 67° |
| 2026-04-14 15:16 | 50.00870 | 8.37863 | 2057 ft | 159 kts | 67° |
| 2026-04-14 15:16 | 50.01239 | 8.39407 | 1820 ft | 148 kts | 68° |
| 2026-04-14 15:17 | 50.01577 | 8.40834 | 1626 ft | 134 kts | 66° |
| 2026-04-14 15:17 | 50.01910 | 8.42202 | 1414 ft | 136 kts | 67° |
| 2026-04-14 15:17 | 50.02242 | 8.43599 | 1222 ft | 142 kts | 67° |
| 2026-04-14 15:17 | 50.02569 | 8.45009 | 996 ft | 138 kts | 69° |
| 2026-04-14 15:18 | 50.02900 | 8.46413 | 834 ft | 140 kts | 66° |
| 2026-04-14 15:18 | 50.03245 | 8.47808 | 664 ft | 136 kts | 66° |
| 2026-04-14 15:18 | 50.03575 | 8.49158 | 451 ft | 130 kts | 67° |
| 2026-04-14 15:18 | 50.03887 | 8.50439 | 330 ft | 120 kts | 68° |
| 2026-04-14 15:19 | 50.04101 | 8.51320 | 336 ft | 75 kts | 70° |
| 2026-04-14 15:19 | 50.04211 | 8.51788 | 349 ft | 25 kts | 72° |
| 2026-04-14 15:19 | 50.04222 | 8.51848 | 352 ft | 9 kts | 75° |
| 2026-04-14 15:19 | 50.04237 | 8.52175 | 348 ft | 39 kts | 99° |
| 2026-04-14 15:20 | 50.04209 | 8.52413 | 359 ft | 19 kts | 101° |
| 2026-04-14 15:20 | 50.04197 | 8.52619 | 360 ft | 19 kts | 83° |
| 2026-04-14 15:20 | 50.04235 | 8.52812 | 358 ft | 18 kts | 70° |
| 2026-04-14 15:20 | 50.04275 | 8.52985 | 364 ft | 16 kts | 70° |
| 2026-04-14 15:21 | 50.04317 | 8.53163 | 370 ft | 19 kts | 70° |
| 2026-04-14 15:21 | 50.04362 | 8.53351 | 371 ft | 18 kts | 69° |
| 2026-04-14 15:21 | 50.04396 | 8.53539 | 373 ft | 18 kts | 82° |
| 2026-04-14 15:21 | 50.04409 | 8.53741 | 373 ft | 19 kts | 85° |
| 2026-04-14 15:22 | 50.04422 | 8.53950 | 368 ft | 20 kts | 84° |
| 2026-04-14 15:22 | 50.04438 | 8.54164 | 368 ft | 20 kts | 83° |
| 2026-04-14 15:22 | 50.04455 | 8.54388 | 368 ft | 21 kts | 83° |
| 2026-04-14 15:22 | 50.04425 | 8.54604 | 370 ft | 21 kts | 117° |
| 2026-04-14 15:23 | 50.04324 | 8.54765 | 371 ft | 22 kts | 148° |
| 2026-04-14 15:23 | 50.04182 | 8.54854 | 371 ft | 23 kts | 160° |
| 2026-04-14 15:23 | 50.04105 | 8.54898 | 370 ft | 1 kts | 160° |
| 2026-04-14 15:23 | 50.04087 | 8.54908 | 372 ft | 4 kts | 160° |
| 2026-04-14 15:24 | 50.04051 | 8.54937 | 372 ft | 7 kts | 143° |
| 2026-04-14 15:24 | 50.04033 | 8.55013 | 369 ft | 8 kts | 96° |
| 2026-04-14 15:24 | 50.04041 | 8.55112 | 370 ft | 10 kts | 77° |
| 2026-04-14 15:24 | 50.04069 | 8.55222 | 372 ft | 12 kts | 68° |
| 2026-04-14 15:25 | 50.04103 | 8.55371 | 373 ft | 18 kts | 70° |
| 2026-04-14 15:25 | 50.04152 | 8.55572 | 371 ft | 22 kts | 69° |
| 2026-04-14 15:25 | 50.04208 | 8.55812 | 370 ft | 11 kts | 70° |
| 2026-04-14 15:25 | 50.04218 | 8.55853 | 374 ft | 14 kts | 69° |
| 2026-04-14 15:26 | 50.04267 | 8.56054 | 372 ft | 22 kts | 69° |
| 2026-04-14 15:26 | 50.04321 | 8.56275 | 374 ft | 22 kts | 69° |
| 2026-04-14 15:26 | 50.04377 | 8.56504 | 369 ft | 23 kts | 69° |
| 2026-04-14 15:26 | 50.04430 | 8.56723 | 371 ft | 21 kts | 70° |
| 2026-04-14 15:27 | 50.04525 | 8.56875 | 369 ft | 20 kts | 19° |
| 2026-04-14 15:27 | 50.04660 | 8.56939 | 371 ft | 20 kts | 21° |
| 2026-04-14 15:27 | 50.04763 | 8.57012 | 374 ft | 6 kts | 25° |
| 2026-04-14 15:27 | 50.04808 | 8.57045 | 370 ft | 8 kts | 25° |
| 2026-04-14 15:28 | 50.04828 | 8.57062 | 371 ft | 3 kts | 34° |
| 2026-04-14 15:28 | 50.04830 | 8.57086 | 374 ft | 2 kts | 81° |
| 2026-04-14 15:28 | 50.04827 | 8.57120 | 373 ft | 1 kts | 103° |
| 2026-04-14 15:28 | 50.04824 | 8.57138 | 372 ft | 3 kts | 104° |
| 2026-04-14 15:29 | 50.04820 | 8.57154 | 372 ft | 1 kts | 109° |
| 2026-04-14 15:29 | 50.04817 | 8.57167 | 371 ft | 1 kts | 111° |
| 2026-04-14 15:29 | 50.04816 | 8.57171 | 371 ft | 0 kts | 111° |